createdAt,value
2023-05-10T00:01:00.738Z,12.83
2023-05-10T00:03:27.169Z,12.82
2023-05-10T00:05:53.540Z,12.79
2023-05-10T00:08:19.876Z,12.81
2023-05-10T00:10:46.302Z,12.78
2023-05-10T00:13:12.835Z,12.74
2023-05-10T00:15:39.265Z,12.76
2023-05-10T00:18:05.769Z,12.76
2023-05-10T00:20:32.228Z,12.75
2023-05-10T00:22:58.630Z,12.76
2023-05-10T00:25:24.989Z,12.74
2023-05-10T00:27:51.324Z,12.73
2023-05-10T00:30:17.864Z,12.68
2023-05-10T00:32:44.402Z,12.57
2023-05-10T00:35:11.215Z,12.73
2023-05-10T00:37:37.578Z,12.72
2023-05-10T00:40:04.233Z,12.63
2023-05-10T00:42:30.570Z,12.65
2023-05-10T00:44:56.901Z,12.73
2023-05-10T00:47:23.598Z,12.65
2023-05-10T00:49:50.462Z,12.69
2023-05-10T00:52:16.865Z,12.63
2023-05-10T00:54:43.359Z,12.62
2023-05-10T00:57:09.767Z,12.62
2023-05-10T00:59:36.335Z,12.64
2023-05-10T01:02:02.760Z,12.64
2023-05-10T01:04:29.435Z,12.60
2023-05-10T01:06:55.848Z,12.61
2023-05-10T01:09:23.121Z,12.51
2023-05-10T01:11:50.256Z,12.50
2023-05-10T01:14:19.642Z,12.58
2023-05-10T01:16:48.011Z,12.53
2023-05-10T01:19:29.936Z,12.56
2023-05-10T01:22:11.257Z,12.55
2023-05-10T01:24:56.351Z,12.56
2023-05-10T01:28:01.658Z,12.57
2023-05-10T01:31:01.794Z,12.57
2023-05-10T01:33:36.135Z,12.58
2023-05-10T01:36:31.366Z,12.57
2023-05-10T01:39:16.124Z,12.58
2023-05-10T01:41:51.745Z,12.51
2023-05-10T01:44:26.992Z,12.57
2023-05-10T01:46:59.317Z,12.54
2023-05-10T01:49:29.904Z,12.50
2023-05-10T01:52:04.873Z,12.54
2023-05-10T01:54:34.317Z,12.53
2023-05-10T01:57:06.268Z,12.53
2023-05-10T01:59:37.644Z,12.55
2023-05-10T02:02:06.422Z,12.58
2023-05-10T02:04:36.149Z,12.61
2023-05-10T02:07:03.165Z,12.62
2023-05-10T02:09:32.902Z,12.61
2023-05-10T02:12:02.418Z,12.61
2023-05-10T02:14:31.451Z,12.68
2023-05-10T02:16:59.536Z,12.64
2023-05-10T02:19:28.746Z,12.71
2023-05-10T02:21:56.849Z,12.69
2023-05-10T02:24:26.051Z,12.63
2023-05-10T02:26:56.022Z,12.68
2023-05-10T02:29:25.936Z,12.64
2023-05-10T02:31:54.221Z,12.65
2023-05-10T02:34:23.173Z,12.61
2023-05-10T02:36:51.748Z,12.58
2023-05-10T02:39:20.488Z,12.56
2023-05-10T02:41:49.121Z,12.58
2023-05-10T02:44:16.570Z,12.58
2023-05-10T02:46:43.022Z,12.64
2023-05-10T02:49:09.455Z,12.68
2023-05-10T02:51:38.231Z,12.68
2023-05-10T02:54:30.247Z,12.69
2023-05-10T02:56:59.286Z,12.57
2023-05-10T02:59:25.728Z,12.69
2023-05-10T03:01:52.191Z,12.71
2023-05-10T03:04:18.699Z,12.68
2023-05-10T03:06:45.723Z,12.65
2023-05-10T03:09:13.452Z,12.70
2023-05-10T03:11:45.501Z,12.74
2023-05-10T03:14:17.645Z,12.74
2023-05-10T03:16:48.091Z,12.67
2023-05-10T03:19:55.932Z,12.74
2023-05-10T03:22:39.402Z,12.72
2023-05-10T03:25:08.636Z,12.76
2023-05-10T03:27:37.189Z,12.72
2023-05-10T03:30:04.044Z,12.79
2023-05-10T03:32:30.670Z,12.76
2023-05-10T03:34:57.008Z,12.82
2023-05-10T03:37:23.334Z,12.80
2023-05-10T03:39:49.641Z,12.78
2023-05-10T03:42:16.008Z,12.82
2023-05-10T03:44:42.479Z,12.74
2023-05-10T03:47:09.136Z,12.76
2023-05-10T03:49:35.591Z,12.80
2023-05-10T03:52:02.073Z,12.79
2023-05-10T03:54:28.512Z,12.80
2023-05-10T03:56:54.871Z,12.84
2023-05-10T03:59:21.258Z,12.77
2023-05-10T04:01:47.692Z,12.75
2023-05-10T04:04:14.077Z,12.72
2023-05-10T04:06:40.570Z,12.73
2023-05-10T04:09:06.954Z,12.81
2023-05-10T04:11:33.309Z,12.79
2023-05-10T04:13:59.619Z,12.80
2023-05-10T04:16:25.906Z,12.84
2023-05-10T04:18:52.242Z,12.80
2023-05-10T04:21:18.749Z,12.73
2023-05-10T04:23:45.065Z,12.79
2023-05-10T04:26:11.506Z,12.79
2023-05-10T04:28:37.825Z,12.77
2023-05-10T04:31:09.930Z,12.86
2023-05-10T04:33:37.265Z,12.82
2023-05-10T04:36:04.472Z,12.86
2023-05-10T04:38:30.847Z,12.83
2023-05-10T04:41:10.585Z,12.87
2023-05-10T04:43:38.222Z,12.90
2023-05-10T04:46:05.750Z,12.88
2023-05-10T04:48:32.332Z,12.95
2023-05-10T04:50:58.670Z,12.92
2023-05-10T04:53:25.124Z,12.98
2023-05-10T04:55:51.541Z,12.99
2023-05-10T04:58:17.965Z,12.97
2023-05-10T05:00:44.284Z,12.90
2023-05-10T05:03:10.760Z,13.02
2023-05-10T05:05:37.134Z,13.01
2023-05-10T05:08:03.731Z,13.01
2023-05-10T05:10:31.111Z,12.99
2023-05-10T05:12:57.515Z,13.01
2023-05-10T05:15:23.992Z,12.95
2023-05-10T05:17:50.395Z,13.03
2023-05-10T05:20:17.121Z,13.00
2023-05-10T05:22:43.811Z,13.00
2023-05-10T05:25:10.176Z,12.97
2023-05-10T05:27:36.482Z,12.92
2023-05-10T05:30:02.963Z,12.94
2023-05-10T05:32:29.418Z,12.95
2023-05-10T05:34:55.784Z,12.89
2023-05-10T05:37:22.166Z,12.95
2023-05-10T05:39:48.821Z,12.91
2023-05-10T05:42:15.367Z,12.97
2023-05-10T05:44:41.759Z,12.94
2023-05-10T05:47:08.068Z,12.95
2023-05-10T05:49:34.517Z,12.97
2023-05-10T05:52:04.534Z,12.91
2023-05-10T05:54:32.418Z,13.02
2023-05-10T05:57:01.216Z,13.03
2023-05-10T05:59:28.971Z,13.07
2023-05-10T06:01:55.635Z,13.11
2023-05-10T06:04:22.165Z,13.13
2023-05-10T06:06:48.632Z,13.18
2023-05-10T06:09:14.981Z,13.25
2023-05-10T06:11:41.384Z,13.35
2023-05-10T06:14:07.754Z,13.33
2023-05-10T06:16:35.314Z,13.41
2023-05-10T06:19:01.957Z,13.50
2023-05-10T06:21:28.310Z,13.53
2023-05-10T06:23:54.715Z,13.47
2023-05-10T06:26:21.074Z,13.46
2023-05-10T06:28:47.489Z,13.45
2023-05-10T06:31:13.900Z,13.43
2023-05-10T06:33:40.272Z,13.38
2023-05-10T06:36:06.713Z,13.41
2023-05-10T06:38:33.114Z,13.38
2023-05-10T06:40:59.486Z,13.32
2023-05-10T06:43:25.824Z,13.27
2023-05-10T06:45:52.225Z,13.28
2023-05-10T06:48:18.685Z,13.29
2023-05-10T06:50:45.158Z,13.24
2023-05-10T06:53:11.607Z,13.16
2023-05-10T06:55:37.980Z,13.25
2023-05-10T06:58:04.352Z,13.27
2023-05-10T07:00:30.747Z,13.32
2023-05-10T07:02:57.155Z,13.21
2023-05-10T07:05:23.639Z,13.29
2023-05-10T07:07:50.061Z,13.21
2023-05-10T07:10:16.453Z,13.21
2023-05-10T07:12:43.019Z,13.28
2023-05-10T07:15:10.040Z,13.34
2023-05-10T07:17:36.450Z,13.42
2023-05-10T07:20:03.131Z,13.45
2023-05-10T07:22:29.484Z,13.61
2023-05-10T07:24:55.805Z,13.71
2023-05-10T07:27:22.135Z,13.79
2023-05-10T07:29:48.479Z,13.83
2023-05-10T07:32:14.869Z,13.79
2023-05-10T07:34:41.249Z,13.99
2023-05-10T07:37:07.641Z,13.95
2023-05-10T07:39:33.994Z,13.91
2023-05-10T07:42:00.355Z,13.94
2023-05-10T07:44:26.714Z,13.80
2023-05-10T07:46:53.074Z,13.81
2023-05-10T07:49:19.447Z,13.69
2023-05-10T07:51:45.797Z,13.56
2023-05-10T07:54:12.237Z,13.57
2023-05-10T07:56:38.664Z,13.49
2023-05-10T07:59:05.121Z,13.51
2023-05-10T08:01:32.735Z,13.48
2023-05-10T08:03:59.127Z,13.53
2023-05-10T08:06:25.577Z,13.56
2023-05-10T08:08:51.885Z,13.60
2023-05-10T08:11:18.438Z,13.59
2023-05-10T08:13:45.805Z,13.65
2023-05-10T08:16:12.273Z,13.66
2023-05-10T08:18:39.093Z,13.63
2023-05-10T08:21:05.714Z,13.66
2023-05-10T08:23:32.278Z,13.65
2023-05-10T08:25:58.614Z,13.70
2023-05-10T08:28:24.959Z,13.70
2023-05-10T08:30:51.759Z,13.76
2023-05-10T08:33:19.107Z,13.79
2023-05-10T08:35:45.514Z,13.79
2023-05-10T08:38:11.997Z,13.80
2023-05-10T08:40:38.673Z,13.85
2023-05-10T08:43:08.755Z,13.99
2023-05-10T08:45:39.400Z,14.09
2023-05-10T08:48:10.442Z,14.19
2023-05-10T08:50:38.411Z,14.32
2023-05-10T08:53:11.853Z,14.44
2023-05-10T08:55:38.568Z,14.56
2023-05-10T08:58:08.079Z,14.73
2023-05-10T09:00:35.063Z,14.72
2023-05-10T09:03:02.565Z,14.75
2023-05-10T09:05:29.085Z,14.75
2023-05-10T09:07:55.490Z,14.74
2023-05-10T09:10:22.346Z,14.82
2023-05-10T09:12:49.572Z,14.78
2023-05-10T09:15:17.096Z,14.72
2023-05-10T09:17:45.341Z,14.80
2023-05-10T09:20:11.852Z,14.79
2023-05-10T09:22:38.248Z,14.76
2023-05-10T09:25:12.623Z,14.73
2023-05-10T09:27:46.073Z,14.81
2023-05-10T09:30:17.838Z,14.84
2023-05-10T09:32:46.273Z,14.85
2023-05-10T09:35:20.622Z,14.87
2023-05-10T09:37:48.714Z,14.99
2023-05-10T09:40:20.285Z,15.06
2023-05-10T09:43:00.755Z,15.02
2023-05-10T09:45:29.307Z,15.11
2023-05-10T09:47:56.452Z,15.11
2023-05-10T09:50:23.416Z,15.11
2023-05-10T09:53:01.702Z,15.11
2023-05-10T09:55:41.124Z,15.11
2023-05-10T09:58:08.256Z,15.12
2023-05-10T10:00:39.986Z,15.17
2023-05-10T10:03:06.910Z,15.16
2023-05-10T10:05:35.622Z,15.16
2023-05-10T10:08:04.534Z,15.18
2023-05-10T10:10:33.577Z,15.21
2023-05-10T10:13:00.444Z,15.25
2023-05-10T10:15:27.304Z,15.28
2023-05-10T10:17:54.487Z,15.34
2023-05-10T10:20:22.299Z,15.31
2023-05-10T10:22:49.139Z,15.40
2023-05-10T10:25:18.134Z,15.44
2023-05-10T10:27:53.933Z,15.55
2023-05-10T10:30:40.353Z,15.67
2023-05-10T10:33:28.732Z,15.79
2023-05-10T10:35:58.842Z,15.91
2023-05-10T10:38:25.260Z,16.07
2023-05-10T10:41:10.561Z,16.19
2023-05-10T10:43:36.926Z,16.46
2023-05-10T10:46:16.547Z,16.68
2023-05-10T10:48:48.652Z,16.78
2023-05-10T10:51:15.249Z,17.01
2023-05-10T10:53:41.924Z,17.05
2023-05-10T10:56:13.312Z,17.09
2023-05-10T10:58:40.363Z,17.09
2023-05-10T11:01:15.625Z,17.13
2023-05-10T11:03:55.919Z,17.23
2023-05-10T11:06:32.975Z,17.18
2023-05-10T11:09:00.042Z,17.16
2023-05-10T11:11:26.542Z,17.15
2023-05-10T11:13:52.909Z,17.15
2023-05-10T11:16:24.389Z,17.18
2023-05-10T11:19:10.182Z,17.17
2023-05-10T11:21:49.886Z,17.08
2023-05-10T11:24:21.903Z,17.01
2023-05-10T11:26:51.345Z,16.95
2023-05-10T11:29:18.006Z,16.91
2023-05-10T11:31:45.048Z,16.97
2023-05-10T11:34:11.963Z,16.98
2023-05-10T11:36:38.433Z,17.00
2023-05-10T11:39:05.935Z,17.01
2023-05-10T11:41:32.756Z,17.02
2023-05-10T11:43:59.395Z,17.07
2023-05-10T11:46:28.394Z,17.15
2023-05-10T11:49:01.864Z,17.30
2023-05-10T11:51:28.381Z,17.37
2023-05-10T11:53:56.126Z,17.42
2023-05-10T11:56:23.123Z,17.45
2023-05-10T11:58:55.352Z,17.53
2023-05-10T12:01:22.825Z,17.57
2023-05-10T12:03:50.442Z,17.52
2023-05-10T12:06:18.968Z,17.51
2023-05-10T12:08:46.991Z,17.51
2023-05-10T12:11:13.995Z,17.52
2023-05-10T12:13:41.523Z,17.47
2023-05-10T12:16:21.427Z,17.38
2023-05-10T12:18:57.811Z,17.21
2023-05-10T12:21:24.746Z,17.11
2023-05-10T12:23:53.141Z,17.08
2023-05-10T12:26:22.675Z,17.09
2023-05-10T12:28:49.034Z,16.99
2023-05-10T12:31:15.379Z,16.79
2023-05-10T12:33:45.768Z,16.74
2023-05-10T12:36:14.168Z,16.61
2023-05-10T12:38:42.450Z,16.79
2023-05-10T12:41:10.990Z,16.77
2023-05-10T12:43:37.988Z,16.79
2023-05-10T12:46:11.470Z,16.80
2023-05-10T12:48:39.029Z,16.93
2023-05-10T12:51:06.507Z,16.94
2023-05-10T12:53:32.880Z,17.02
2023-05-10T12:55:59.200Z,17.13
2023-05-10T12:58:34.917Z,17.18
2023-05-10T13:01:03.485Z,17.27
2023-05-10T13:03:29.997Z,17.28
2023-05-10T13:05:56.280Z,17.34
2023-05-10T13:08:22.617Z,17.47
2023-05-10T13:10:49.391Z,17.50
2023-05-10T13:13:16.434Z,17.68
2023-05-10T13:15:42.776Z,17.70
2023-05-10T13:18:09.255Z,17.81
2023-05-10T13:20:35.630Z,17.83
2023-05-10T13:23:01.916Z,17.98
2023-05-10T13:25:28.234Z,18.10
2023-05-10T13:27:54.546Z,18.13
2023-05-10T13:30:20.829Z,18.30
2023-05-10T13:32:47.135Z,18.44
2023-05-10T13:35:13.545Z,18.45
2023-05-10T13:37:39.858Z,18.50
2023-05-10T13:40:06.830Z,18.50
2023-05-10T13:42:33.154Z,18.50
2023-05-10T13:44:59.502Z,18.42
2023-05-10T13:47:25.812Z,18.38
2023-05-10T13:49:52.120Z,18.34
2023-05-10T13:52:18.402Z,18.35
2023-05-10T13:54:44.696Z,18.31
2023-05-10T13:57:11.013Z,18.32
2023-05-10T13:59:37.293Z,18.28
2023-05-10T14:02:03.674Z,18.17
2023-05-10T14:04:30.491Z,18.13
2023-05-10T14:06:56.817Z,18.06
2023-05-10T14:09:23.112Z,17.93
2023-05-10T14:11:49.379Z,17.81
2023-05-10T14:14:15.715Z,17.73
2023-05-10T14:16:45.605Z,17.69
2023-05-10T14:19:12.217Z,17.62
2023-05-10T14:21:38.661Z,17.62
2023-05-10T14:24:05.310Z,17.62
2023-05-10T14:26:31.659Z,17.52
2023-05-10T14:28:58.037Z,17.51
2023-05-10T14:31:24.406Z,17.31
2023-05-10T14:33:50.757Z,17.30
2023-05-10T14:36:18.848Z,17.21
2023-05-10T14:38:45.144Z,17.16
2023-05-10T14:41:12.007Z,17.16
2023-05-10T14:43:38.318Z,17.22
2023-05-10T14:46:04.658Z,17.29
2023-05-10T14:48:30.964Z,17.37
2023-05-10T14:50:57.241Z,17.37
2023-05-10T14:53:23.526Z,17.26
2023-05-10T14:55:49.819Z,17.06
2023-05-10T14:58:16.113Z,17.05
2023-05-10T15:00:42.406Z,16.95
2023-05-10T15:03:09.299Z,16.87
2023-05-10T15:05:35.984Z,16.91
2023-05-10T15:08:02.623Z,16.90
2023-05-10T15:10:28.947Z,16.97
2023-05-10T15:12:55.249Z,17.07
2023-05-10T15:15:21.806Z,17.15
2023-05-10T15:17:49.019Z,17.22
2023-05-10T15:20:15.428Z,17.24
2023-05-10T15:22:41.704Z,17.23
2023-05-10T15:25:08.418Z,17.34
2023-05-10T15:27:34.703Z,17.31
2023-05-10T15:30:01.011Z,17.25
2023-05-10T15:32:27.478Z,17.23
2023-05-10T15:34:53.797Z,17.25
2023-05-10T15:37:20.148Z,17.42
2023-05-10T15:39:51.814Z,17.38
2023-05-10T15:42:19.185Z,17.48
2023-05-10T15:44:45.541Z,17.51
2023-05-10T15:47:11.861Z,17.59
2023-05-10T15:49:38.198Z,17.54
2023-05-10T15:52:04.758Z,17.56
2023-05-10T15:54:31.097Z,17.52
2023-05-10T15:56:57.425Z,17.49
2023-05-10T15:59:23.774Z,17.48
2023-05-10T16:01:50.141Z,17.34
2023-05-10T16:04:16.487Z,17.25
2023-05-10T16:06:42.800Z,17.24
2023-05-10T16:09:09.217Z,17.25
2023-05-10T16:11:35.606Z,17.30
2023-05-10T16:14:01.990Z,17.24
2023-05-10T16:16:28.496Z,17.18
2023-05-10T16:18:56.013Z,17.09
2023-05-10T16:21:22.637Z,17.09
2023-05-10T16:23:49.431Z,17.07
2023-05-10T16:26:15.879Z,17.12
2023-05-10T16:28:42.194Z,16.94
2023-05-10T16:31:08.833Z,16.88
2023-05-10T16:33:35.197Z,16.87
2023-05-10T16:36:01.509Z,16.68
2023-05-10T16:38:27.856Z,16.58
2023-05-10T16:40:54.173Z,16.38
2023-05-10T16:43:20.462Z,16.13
2023-05-10T16:45:46.829Z,16.03
2023-05-10T16:48:13.220Z,15.80
2023-05-10T16:50:43.359Z,15.58
2023-05-10T16:53:09.859Z,15.41
2023-05-10T16:55:36.193Z,15.29
2023-05-10T16:58:02.678Z,15.09
2023-05-10T17:00:29.433Z,14.93
2023-05-10T17:02:56.006Z,14.84
2023-05-10T17:05:22.944Z,14.77
2023-05-10T17:07:49.291Z,14.75
2023-05-10T17:10:16.410Z,14.74
2023-05-10T17:12:43.190Z,14.80
2023-05-10T17:15:10.081Z,14.76
2023-05-10T17:17:36.489Z,14.81
2023-05-10T17:20:03.072Z,14.75
2023-05-10T17:22:29.359Z,14.80
2023-05-10T17:24:55.653Z,14.79
2023-05-10T17:27:21.999Z,14.79
2023-05-10T17:29:48.309Z,14.83
2023-05-10T17:32:14.684Z,14.88
2023-05-10T17:34:40.967Z,14.85
2023-05-10T17:37:09.141Z,14.86
2023-05-10T17:39:35.593Z,14.86
2023-05-10T17:42:02.276Z,14.88
2023-05-10T17:44:28.625Z,14.85
2023-05-10T17:46:55.013Z,14.87
2023-05-10T17:49:21.357Z,14.83
2023-05-10T17:51:47.707Z,14.78
2023-05-10T17:54:14.953Z,14.74
2023-05-10T17:56:41.730Z,14.80
2023-05-10T17:59:08.153Z,14.81
2023-05-10T18:01:34.620Z,14.81
2023-05-10T18:04:00.995Z,14.71
2023-05-10T18:06:27.370Z,14.71
2023-05-10T18:08:53.697Z,14.68
2023-05-10T18:11:20.060Z,14.69
2023-05-10T18:13:46.376Z,14.67
2023-05-10T18:16:12.897Z,14.65
2023-05-10T18:18:39.464Z,14.53
2023-05-10T18:21:05.803Z,14.59
2023-05-10T18:23:32.213Z,14.49
2023-05-10T18:25:58.575Z,14.49
2023-05-10T18:28:24.911Z,14.53
2023-05-10T18:30:51.390Z,14.48
2023-05-10T18:33:17.799Z,14.49
2023-05-10T18:35:44.174Z,14.51
2023-05-10T18:38:10.748Z,14.45
2023-05-10T18:40:37.125Z,14.42
2023-05-10T18:43:03.479Z,14.38
2023-05-10T18:45:29.922Z,14.33
2023-05-10T18:47:56.392Z,14.33
2023-05-10T18:50:22.841Z,14.30
2023-05-10T18:52:49.156Z,14.26
2023-05-10T18:55:15.722Z,14.31
2023-05-10T18:57:42.377Z,14.23
2023-05-10T19:00:10.304Z,14.19
2023-05-10T19:02:37.613Z,14.12
2023-05-10T19:05:04.375Z,14.12
2023-05-10T19:07:30.759Z,14.06
2023-05-10T19:09:57.100Z,13.98
2023-05-10T19:12:23.537Z,13.94
2023-05-10T19:14:49.868Z,13.88
2023-05-10T19:17:16.899Z,13.80
2023-05-10T19:19:43.382Z,13.79
2023-05-10T19:22:10.190Z,13.72
2023-05-10T19:24:37.254Z,13.66
2023-05-10T19:27:03.874Z,13.54
2023-05-10T19:29:30.262Z,13.55
2023-05-10T19:31:56.585Z,13.55
2023-05-10T19:34:22.909Z,13.45
2023-05-10T19:36:49.811Z,13.44
2023-05-10T19:39:16.127Z,13.33
2023-05-10T19:41:42.504Z,13.25
2023-05-10T19:44:08.842Z,13.22
2023-05-10T19:46:35.180Z,13.11
2023-05-10T19:49:01.574Z,13.09
2023-05-10T19:51:27.946Z,13.07
2023-05-10T19:53:54.258Z,12.94
2023-05-10T19:56:20.613Z,12.89
2023-05-10T19:58:46.940Z,12.80
2023-05-10T20:01:13.317Z,12.81
2023-05-10T20:03:39.679Z,12.77
2023-05-10T20:06:06.133Z,12.72
2023-05-10T20:08:32.515Z,12.68
2023-05-10T20:10:58.800Z,12.68
2023-05-10T20:13:25.187Z,12.65
2023-05-10T20:15:55.763Z,12.67
2023-05-10T20:18:22.578Z,12.58
2023-05-10T20:20:53.468Z,12.60
2023-05-10T20:23:19.872Z,12.61
2023-05-10T20:25:46.240Z,12.57
2023-05-10T20:28:12.560Z,12.52
2023-05-10T20:30:38.947Z,12.52
2023-05-10T20:33:05.307Z,12.52
2023-05-10T20:35:31.743Z,12.44
2023-05-10T20:37:58.131Z,12.51
2023-05-10T20:40:24.489Z,12.53
2023-05-10T20:42:50.830Z,12.51
2023-05-10T20:45:17.237Z,12.52
2023-05-10T20:47:43.579Z,12.52
2023-05-10T20:50:10.174Z,12.49
2023-05-10T20:52:36.504Z,12.53
2023-05-10T20:55:02.859Z,12.54
2023-05-10T20:57:29.227Z,12.50
2023-05-10T20:59:55.517Z,12.55
2023-05-10T21:02:21.853Z,12.55
2023-05-10T21:04:48.284Z,12.54
2023-05-10T21:07:14.688Z,12.51
2023-05-10T21:09:41.076Z,12.57
2023-05-10T21:12:10.071Z,12.55
2023-05-10T21:14:36.400Z,12.50
2023-05-10T21:17:02.785Z,12.51
2023-05-10T21:19:29.111Z,12.44
2023-05-10T21:21:55.427Z,12.42
2023-05-10T21:24:22.374Z,12.40
2023-05-10T21:26:48.859Z,12.43
2023-05-10T21:29:15.231Z,12.38
2023-05-10T21:31:41.719Z,12.41
2023-05-10T21:34:08.021Z,12.37
2023-05-10T21:36:34.358Z,12.32
2023-05-10T21:39:00.684Z,12.23
2023-05-10T21:41:27.045Z,12.18
2023-05-10T21:43:53.374Z,12.17
2023-05-10T21:46:19.872Z,12.08
2023-05-10T21:48:46.304Z,12.06
2023-05-10T21:51:12.702Z,12.09
2023-05-10T21:53:39.102Z,12.03
2023-05-10T21:56:05.781Z,12.04
2023-05-10T21:58:32.241Z,12.03
2023-05-10T22:00:58.617Z,12.03
2023-05-10T22:03:25.081Z,11.97
2023-05-10T22:05:51.504Z,12.00
2023-05-10T22:08:17.929Z,11.92
2023-05-10T22:10:44.356Z,11.90
2023-05-10T22:13:10.687Z,11.94
2023-05-10T22:15:37.022Z,11.89
2023-05-10T22:18:03.474Z,11.88
2023-05-10T22:20:29.883Z,11.90
2023-05-10T22:22:56.229Z,11.86
2023-05-10T22:25:22.698Z,11.88
2023-05-10T22:27:49.142Z,11.86
2023-05-10T22:30:15.909Z,11.88
2023-05-10T22:32:42.458Z,11.86
2023-05-10T22:35:09.035Z,11.87
2023-05-10T22:37:35.358Z,11.78
2023-05-10T22:40:01.728Z,11.81
2023-05-10T22:42:28.030Z,11.78
2023-05-10T22:44:54.321Z,11.81
2023-05-10T22:47:20.632Z,11.76
2023-05-10T22:49:46.968Z,11.85
2023-05-10T22:52:13.285Z,11.88
2023-05-10T22:54:39.641Z,11.82
2023-05-10T22:57:06.054Z,11.91
2023-05-10T22:59:32.575Z,11.89
2023-05-10T23:01:59.013Z,11.96
2023-05-10T23:04:25.564Z,11.96
2023-05-10T23:06:51.911Z,11.93
2023-05-10T23:09:18.216Z,11.93
2023-05-10T23:11:44.553Z,11.89
2023-05-10T23:14:10.882Z,11.87
2023-05-10T23:16:37.203Z,11.84
2023-05-10T23:19:03.691Z,11.84
2023-05-10T23:21:32.018Z,11.82
2023-05-10T23:23:58.745Z,11.88
2023-05-10T23:26:25.134Z,11.87
2023-05-10T23:28:51.490Z,11.83
2023-05-10T23:31:17.841Z,11.87
2023-05-10T23:33:44.236Z,11.82
2023-05-10T23:36:10.584Z,11.78
2023-05-10T23:38:38.293Z,11.83
2023-05-10T23:41:04.628Z,11.77
2023-05-10T23:43:31.018Z,11.82
2023-05-10T23:45:58.311Z,11.83
2023-05-10T23:48:24.931Z,11.82
2023-05-10T23:50:51.286Z,11.82
2023-05-10T23:53:17.631Z,11.81
2023-05-10T23:55:44.056Z,11.84
2023-05-10T23:58:10.433Z,11.85
